QAK618 MMAA-MMMY
Flight info
| Callsign | QAK618 |
|---|---|
| Flight time | 1h 46m |
| Altitude | 38000 |
| Route | ALNUS1B ALNUS UT117 ESPOS/N0463F370 DCT AXIRI/N0461F380 UT138 CVM UJ15E RETOS RETOS1B |
| Aircraft | B752/M-SDE3FGHIM3RWXY/LB1 |
Departure
| Time | 2026-04-21 18:34 |
|---|---|
| Airport | General Juan N. Álvarez International Airport (MMAA) |
Arrival
| Time | 2026-04-21 20:21 |
|---|---|
| Airport | Monterrey International Airport (MMMY) |
| Time | Latitude | Longitude | Altitude | Speed | Heading |
|---|---|---|---|---|---|
| 2026-04-21 18:22 | 16.76134 | -99.75559 | 31 ft | 0 kts | 18° |
| 2026-04-21 18:23 | 16.76133 | -99.75559 | 31 ft | 1 kts | 18° |
| 2026-04-21 18:23 | 16.76119 | -99.75565 | 30 ft | 2 kts | 18° |
| 2026-04-21 18:23 | 16.76104 | -99.75569 | 30 ft | 2 kts | 18° |
| 2026-04-21 18:24 | 16.76090 | -99.75574 | 30 ft | 2 kts | 18° |
| 2026-04-21 18:24 | 16.76076 | -99.75579 | 30 ft | 2 kts | 33° |
| 2026-04-21 18:24 | 16.76065 | -99.75590 | 30 ft | 2 kts | 52° |
| 2026-04-21 18:24 | 16.76058 | -99.75603 | 30 ft | 2 kts | 72° |
| 2026-04-21 18:25 | 16.76055 | -99.75619 | 30 ft | 2 kts | 91° |
| 2026-04-21 18:25 | 16.76057 | -99.75630 | 30 ft | 0 kts | 106° |
| 2026-04-21 18:25 | 16.76059 | -99.75636 | 30 ft | 0 kts | 108° |
| 2026-04-21 18:25 | 16.76059 | -99.75635 | 30 ft | 0 kts | 108° |
| 2026-04-21 18:28 | 16.76054 | -99.75620 | 30 ft | 4 kts | 108° |
| 2026-04-21 18:28 | 16.76042 | -99.75583 | 30 ft | 6 kts | 108° |
| 2026-04-21 18:29 | 16.76027 | -99.75537 | 30 ft | 6 kts | 107° |
| 2026-04-21 18:29 | 16.76013 | -99.75487 | 30 ft | 7 kts | 107° |
| 2026-04-21 18:29 | 16.75997 | -99.75435 | 30 ft | 7 kts | 107° |
| 2026-04-21 18:29 | 16.75980 | -99.75382 | 30 ft | 7 kts | 108° |
| 2026-04-21 18:30 | 16.75960 | -99.75352 | 30 ft | 3 kts | 165° |
| 2026-04-21 18:30 | 16.75903 | -99.75337 | 30 ft | 12 kts | 139° |
| 2026-04-21 18:30 | 16.75847 | -99.75185 | 29 ft | 31 kts | 108° |
| 2026-04-21 18:30 | 16.75783 | -99.74984 | 29 ft | 28 kts | 108° |
| 2026-04-21 18:31 | 16.75721 | -99.74786 | 29 ft | 28 kts | 107° |
| 2026-04-21 18:31 | 16.75660 | -99.74595 | 28 ft | 27 kts | 109° |
| 2026-04-21 18:31 | 16.75601 | -99.74404 | 28 ft | 27 kts | 106° |
| 2026-04-21 18:31 | 16.75543 | -99.74217 | 28 ft | 26 kts | 108° |
| 2026-04-21 18:32 | 16.75486 | -99.74034 | 28 ft | 26 kts | 108° |
| 2026-04-21 18:32 | 16.75431 | -99.73858 | 27 ft | 25 kts | 108° |
| 2026-04-21 18:32 | 16.75376 | -99.73685 | 27 ft | 24 kts | 108° |
| 2026-04-21 18:32 | 16.75324 | -99.73517 | 27 ft | 24 kts | 108° |
| 2026-04-21 18:33 | 16.75282 | -99.73384 | 27 ft | 13 kts | 107° |
| 2026-04-21 18:33 | 16.75218 | -99.73332 | 27 ft | 13 kts | 182° |
| 2026-04-21 18:33 | 16.75126 | -99.73356 | 27 ft | 14 kts | 199° |
| 2026-04-21 18:33 | 16.75102 | -99.73449 | 27 ft | 23 kts | 287° |
| 2026-04-21 18:34 | 16.75218 | -99.73830 | 28 ft | 91 kts | 288° |
| 2026-04-21 18:34 | 16.75495 | -99.74696 | 31 ft | 157 kts | 288° |
| 2026-04-21 18:34 | 16.75896 | -99.75906 | 489 ft | 194 kts | 287° |
| 2026-04-21 18:34 | 16.76346 | -99.77267 | 1221 ft | 202 kts | 288° |
| 2026-04-21 18:35 | 16.76655 | -99.78189 | 1651 ft | 213 kts | 288° |
| 2026-04-21 18:35 | 16.77274 | -99.80136 | 2951 ft | 212 kts | 288° |
| 2026-04-21 18:35 | 16.77729 | -99.81603 | 3846 ft | 217 kts | 288° |
| 2026-04-21 18:35 | 16.78177 | -99.83075 | 4757 ft | 218 kts | 288° |
| 2026-04-21 18:36 | 16.78637 | -99.84596 | 5543 ft | 221 kts | 288° |
| 2026-04-21 18:36 | 16.79106 | -99.86145 | 6193 ft | 232 kts | 289° |
| 2026-04-21 18:36 | 16.79960 | -99.87570 | 6776 ft | 243 kts | 319° |
| 2026-04-21 18:36 | 16.81498 | -99.88426 | 7239 ft | 260 kts | 345° |
| 2026-04-21 18:37 | 16.83330 | -99.88905 | 7725 ft | 278 kts | 346° |
| 2026-04-21 18:37 | 16.85222 | -99.89431 | 8421 ft | 286 kts | 346° |
| 2026-04-21 18:37 | 16.87165 | -99.89970 | 9264 ft | 289 kts | 346° |
| 2026-04-21 18:37 | 16.89098 | -99.90508 | 10065 ft | 292 kts | 346° |
| 2026-04-21 18:38 | 16.91085 | -99.91061 | 10837 ft | 296 kts | 347° |
| 2026-04-21 18:38 | 16.93084 | -99.91615 | 11615 ft | 298 kts | 348° |
| 2026-04-21 18:38 | 16.95099 | -99.91822 | 12572 ft | 288 kts | 8° |
| 2026-04-21 18:38 | 16.96925 | -99.91246 | 13718 ft | 270 kts | 27° |
| 2026-04-21 18:39 | 16.98537 | -99.90391 | 14773 ft | 257 kts | 29° |
| 2026-04-21 18:39 | 17.00054 | -99.89548 | 15764 ft | 244 kts | 30° |
| 2026-04-21 18:39 | 17.01474 | -99.88717 | 16700 ft | 233 kts | 31° |
| 2026-04-21 18:39 | 17.02873 | -99.87875 | 17315 ft | 236 kts | 32° |
| 2026-04-21 18:40 | 17.04299 | -99.86999 | 17944 ft | 237 kts | 32° |
| 2026-04-21 18:40 | 17.05725 | -99.86114 | 18561 ft | 239 kts | 32° |
| 2026-04-21 18:40 | 17.06659 | -99.85530 | 18961 ft | 240 kts | 32° |
| 2026-04-21 18:40 | 17.08581 | -99.84326 | 19734 ft | 243 kts | 31° |
| 2026-04-21 18:41 | 17.10038 | -99.83411 | 20306 ft | 245 kts | 31° |
| 2026-04-21 18:41 | 17.11492 | -99.82495 | 20861 ft | 247 kts | 31° |
| 2026-04-21 18:41 | 17.12970 | -99.81565 | 21392 ft | 249 kts | 31° |
| 2026-04-21 18:41 | 17.14459 | -99.80626 | 21912 ft | 251 kts | 31° |
| 2026-04-21 18:42 | 17.15971 | -99.79673 | 22429 ft | 254 kts | 30° |
| 2026-04-21 18:42 | 17.17470 | -99.78728 | 22925 ft | 256 kts | 30° |
| 2026-04-21 18:42 | 17.19016 | -99.77753 | 23403 ft | 261 kts | 31° |
| 2026-04-21 18:42 | 17.20587 | -99.76811 | 23944 ft | 262 kts | 20° |
| 2026-04-21 18:43 | 17.22379 | -99.76460 | 24357 ft | 266 kts | 359° |
| 2026-04-21 18:43 | 17.24236 | -99.76489 | 24888 ft | 267 kts | 360° |
| 2026-04-21 18:43 | 17.26104 | -99.76498 | 25368 ft | 270 kts | 359° |
| 2026-04-21 18:43 | 17.28021 | -99.76524 | 25860 ft | 273 kts | 359° |
| 2026-04-21 18:44 | 17.29914 | -99.76556 | 26297 ft | 276 kts | 358° |
| 2026-04-21 18:44 | 17.31857 | -99.76592 | 26736 ft | 279 kts | 358° |
| 2026-04-21 18:44 | 17.33807 | -99.76631 | 27199 ft | 281 kts | 358° |
| 2026-04-21 18:44 | 17.35772 | -99.76672 | 27608 ft | 284 kts | 358° |
| 2026-04-21 18:45 | 17.37759 | -99.76713 | 28024 ft | 285 kts | 358° |
| 2026-04-21 18:45 | 17.39756 | -99.76755 | 28249 ft | 287 kts | 358° |
| 2026-04-21 18:45 | 17.41758 | -99.76798 | 28376 ft | 290 kts | 357° |
| 2026-04-21 18:45 | 17.43798 | -99.76841 | 28656 ft | 289 kts | 357° |
| 2026-04-21 18:46 | 17.45833 | -99.76884 | 28835 ft | 292 kts | 357° |
| 2026-04-21 18:46 | 17.47862 | -99.76928 | 29034 ft | 293 kts | 356° |
| 2026-04-21 18:46 | 17.49919 | -99.76972 | 29228 ft | 294 kts | 357° |
| 2026-04-21 18:46 | 17.51971 | -99.77016 | 29431 ft | 294 kts | 356° |
| 2026-04-21 18:47 | 17.54026 | -99.77060 | 29613 ft | 296 kts | 356° |
| 2026-04-21 18:47 | 17.56081 | -99.77103 | 29795 ft | 297 kts | 356° |
| 2026-04-21 18:47 | 17.58173 | -99.77148 | 29977 ft | 297 kts | 356° |
| 2026-04-21 18:47 | 17.60264 | -99.77194 | 30138 ft | 299 kts | 357° |
| 2026-04-21 18:48 | 17.62350 | -99.77239 | 30306 ft | 300 kts | 357° |
| 2026-04-21 18:48 | 17.64464 | -99.77285 | 30461 ft | 301 kts | 357° |
| 2026-04-21 18:48 | 17.66580 | -99.77331 | 30625 ft | 302 kts | 357° |
| 2026-04-21 18:48 | 17.68676 | -99.77377 | 30768 ft | 303 kts | 356° |
| 2026-04-21 18:49 | 17.70812 | -99.77423 | 30920 ft | 304 kts | 356° |
| 2026-04-21 18:49 | 17.72953 | -99.77470 | 31076 ft | 305 kts | 356° |
| 2026-04-21 18:49 | 17.74379 | -99.77502 | 31172 ft | 305 kts | 356° |
| 2026-04-21 18:49 | 17.77245 | -99.77564 | 31354 ft | 307 kts | 356° |
| 2026-04-21 18:50 | 17.79394 | -99.77644 | 31510 ft | 307 kts | 354° |
| 2026-04-21 18:50 | 17.81535 | -99.77766 | 31624 ft | 308 kts | 354° |
| 2026-04-21 18:50 | 17.83685 | -99.77880 | 31782 ft | 308 kts | 354° |
| 2026-04-21 18:50 | 17.85832 | -99.77995 | 31890 ft | 309 kts | 354° |
| 2026-04-21 18:51 | 17.88022 | -99.78112 | 32008 ft | 310 kts | 354° |
| 2026-04-21 18:51 | 17.90190 | -99.78229 | 32133 ft | 311 kts | 354° |
| 2026-04-21 18:51 | 17.92353 | -99.78343 | 32224 ft | 313 kts | 354° |
| 2026-04-21 18:51 | 17.94563 | -99.78462 | 32338 ft | 314 kts | 354° |
| 2026-04-21 18:52 | 17.96739 | -99.78578 | 32451 ft | 314 kts | 354° |
| 2026-04-21 18:52 | 18.01137 | -99.78814 | 32652 ft | 316 kts | 354° |
| 2026-04-21 18:53 | 18.05566 | -99.79050 | 32871 ft | 317 kts | 354° |
| 2026-04-21 18:53 | 18.09983 | -99.79287 | 33080 ft | 318 kts | 354° |
| 2026-04-21 18:54 | 18.14466 | -99.79527 | 33280 ft | 319 kts | 354° |
| 2026-04-21 18:54 | 18.16674 | -99.79645 | 33400 ft | 319 kts | 354° |
| 2026-04-21 18:54 | 18.18893 | -99.79765 | 33494 ft | 319 kts | 354° |
| 2026-04-21 18:55 | 18.22616 | -99.79964 | 33649 ft | 320 kts | 353° |
| 2026-04-21 18:55 | 18.27837 | -99.80244 | 33821 ft | 322 kts | 354° |
| 2026-04-21 18:56 | 18.32351 | -99.80486 | 34001 ft | 322 kts | 353° |
| 2026-04-21 18:56 | 18.36846 | -99.80728 | 34157 ft | 323 kts | 353° |
| 2026-04-21 18:57 | 18.41358 | -99.80971 | 34288 ft | 324 kts | 353° |
| 2026-04-21 18:57 | 18.43630 | -99.81093 | 34411 ft | 323 kts | 353° |
| 2026-04-21 18:57 | 18.45899 | -99.81215 | 34459 ft | 324 kts | 353° |
| 2026-04-21 18:58 | 18.50416 | -99.81458 | 34585 ft | 325 kts | 353° |
| 2026-04-21 18:58 | 18.54971 | -99.81703 | 34716 ft | 326 kts | 353° |
| 2026-04-21 18:59 | 18.59524 | -99.81948 | 34874 ft | 325 kts | 353° |
| 2026-04-21 18:59 | 18.64091 | -99.82194 | 35000 ft | 326 kts | 353° |
| 2026-04-21 19:00 | 18.68646 | -99.82440 | 35113 ft | 327 kts | 353° |
| 2026-04-21 19:00 | 18.73231 | -99.82414 | 35219 ft | 332 kts | 11° |
| 2026-04-21 19:01 | 18.77572 | -99.80694 | 35292 ft | 337 kts | 18° |
| 2026-04-21 19:01 | 18.81961 | -99.78805 | 35364 ft | 338 kts | 18° |
| 2026-04-21 19:02 | 18.86324 | -99.76906 | 35485 ft | 338 kts | 19° |
| 2026-04-21 19:02 | 18.90691 | -99.75000 | 35565 ft | 339 kts | 19° |
| 2026-04-21 19:03 | 18.95085 | -99.73078 | 35650 ft | 340 kts | 18° |
| 2026-04-21 19:03 | 18.99458 | -99.71165 | 35779 ft | 339 kts | 19° |
| 2026-04-21 19:04 | 19.03854 | -99.69241 | 35831 ft | 341 kts | 19° |
| 2026-04-21 19:04 | 19.08249 | -99.67316 | 35905 ft | 342 kts | 18° |
| 2026-04-21 19:05 | 19.12643 | -99.65390 | 35978 ft | 342 kts | 18° |
| 2026-04-21 19:05 | 19.17079 | -99.63444 | 36072 ft | 342 kts | 18° |
| 2026-04-21 19:06 | 19.21521 | -99.61496 | 36129 ft | 343 kts | 18° |
| 2026-04-21 19:06 | 19.25942 | -99.59553 | 36198 ft | 343 kts | 18° |
| 2026-04-21 19:07 | 19.30379 | -99.57606 | 36248 ft | 344 kts | 18° |
| 2026-04-21 19:07 | 19.34820 | -99.55653 | 36331 ft | 344 kts | 18° |
| 2026-04-21 19:08 | 19.39248 | -99.53706 | 36379 ft | 345 kts | 18° |
| 2026-04-21 19:08 | 19.43696 | -99.51749 | 36446 ft | 345 kts | 18° |
| 2026-04-21 19:09 | 19.48165 | -99.49780 | 36492 ft | 346 kts | 18° |
| 2026-04-21 19:09 | 19.52610 | -99.47821 | 36552 ft | 346 kts | 18° |
| 2026-04-21 19:10 | 19.57098 | -99.45843 | 36605 ft | 347 kts | 17° |
| 2026-04-21 19:10 | 19.61556 | -99.43877 | 36656 ft | 347 kts | 18° |
| 2026-04-21 19:11 | 19.66023 | -99.41904 | 36703 ft | 348 kts | 17° |
| 2026-04-21 19:11 | 19.70542 | -99.39909 | 36761 ft | 348 kts | 17° |
| 2026-04-21 19:12 | 19.75035 | -99.37923 | 36807 ft | 350 kts | 18° |
| 2026-04-21 19:12 | 19.79555 | -99.35923 | 37063 ft | 350 kts | 17° |
| 2026-04-21 19:13 | 19.84105 | -99.33910 | 37222 ft | 352 kts | 17° |
| 2026-04-21 19:13 | 19.88631 | -99.31907 | 37320 ft | 355 kts | 18° |
| 2026-04-21 19:13 | 19.90912 | -99.30896 | 37454 ft | 354 kts | 17° |
| 2026-04-21 19:14 | 19.93229 | -99.29870 | 37467 ft | 356 kts | 17° |
| 2026-04-21 19:14 | 19.95512 | -99.28857 | 37620 ft | 355 kts | 17° |
| 2026-04-21 19:14 | 19.97802 | -99.27843 | 37624 ft | 357 kts | 17° |
| 2026-04-21 19:15 | 20.02412 | -99.25797 | 37751 ft | 359 kts | 17° |
| 2026-04-21 19:15 | 20.04717 | -99.24774 | 37853 ft | 358 kts | 17° |
| 2026-04-21 19:15 | 20.07031 | -99.23747 | 37868 ft | 360 kts | 17° |
| 2026-04-21 19:15 | 20.09345 | -99.22719 | 37979 ft | 359 kts | 17° |
| 2026-04-21 19:16 | 20.11635 | -99.21702 | 38027 ft | 360 kts | 17° |
| 2026-04-21 19:16 | 20.16284 | -99.19636 | 38134 ft | 361 kts | 17° |
| 2026-04-21 19:17 | 20.23276 | -99.16525 | 38323 ft | 362 kts | 17° |
| 2026-04-21 19:17 | 20.27950 | -99.14445 | 38356 ft | 365 kts | 17° |
| 2026-04-21 19:18 | 20.30297 | -99.13399 | 38463 ft | 364 kts | 17° |
| 2026-04-21 19:18 | 20.32645 | -99.12354 | 38421 ft | 365 kts | 17° |
| 2026-04-21 19:18 | 20.37339 | -99.10261 | 38427 ft | 364 kts | 17° |
| 2026-04-21 19:19 | 20.42051 | -99.08159 | 38415 ft | 365 kts | 17° |
| 2026-04-21 19:19 | 20.44421 | -99.07397 | 38430 ft | 354 kts | 359° |
| 2026-04-21 19:19 | 20.46892 | -99.07192 | 38415 ft | 353 kts | 356° |
| 2026-04-21 19:20 | 20.51793 | -99.06905 | 38399 ft | 350 kts | 356° |
| 2026-04-21 19:20 | 20.56665 | -99.06645 | 38382 ft | 349 kts | 355° |
| 2026-04-21 19:21 | 20.61558 | -99.06393 | 38370 ft | 350 kts | 356° |
| 2026-04-21 19:21 | 20.66425 | -99.06145 | 38347 ft | 349 kts | 356° |
| 2026-04-21 19:22 | 20.71281 | -99.05898 | 38339 ft | 349 kts | 356° |
| 2026-04-21 19:22 | 20.76211 | -99.05648 | 38323 ft | 351 kts | 356° |
| 2026-04-21 19:23 | 20.81098 | -99.05399 | 38296 ft | 350 kts | 356° |
| 2026-04-21 19:23 | 20.85970 | -99.05151 | 38289 ft | 349 kts | 356° |
| 2026-04-21 19:24 | 20.90841 | -99.04903 | 38260 ft | 349 kts | 356° |
| 2026-04-21 19:24 | 20.95702 | -99.04655 | 38239 ft | 348 kts | 356° |
| 2026-04-21 19:25 | 21.00544 | -99.04408 | 38221 ft | 348 kts | 356° |
| 2026-04-21 19:25 | 21.05437 | -99.04158 | 38203 ft | 349 kts | 356° |
| 2026-04-21 19:26 | 21.10144 | -99.03917 | 38194 ft | 347 kts | 356° |
| 2026-04-21 19:26 | 21.15125 | -99.03664 | 38201 ft | 352 kts | 356° |
| 2026-04-21 19:27 | 21.20139 | -99.03410 | 38183 ft | 363 kts | 356° |
| 2026-04-21 19:27 | 21.25295 | -99.03146 | 38182 ft | 373 kts | 356° |
| 2026-04-21 19:28 | 21.30533 | -99.02877 | 38170 ft | 384 kts | 356° |
| 2026-04-21 19:28 | 21.35995 | -99.02598 | 38148 ft | 396 kts | 357° |
| 2026-04-21 19:29 | 21.41592 | -99.02311 | 38126 ft | 407 kts | 357° |
| 2026-04-21 19:29 | 21.47360 | -99.02015 | 38095 ft | 419 kts | 357° |
| 2026-04-21 19:30 | 21.53256 | -99.01712 | 38072 ft | 430 kts | 358° |
| 2026-04-21 19:30 | 21.59317 | -99.01401 | 38066 ft | 440 kts | 358° |
| 2026-04-21 19:31 | 21.65568 | -99.01078 | 38045 ft | 448 kts | 358° |
| 2026-04-21 19:31 | 21.71779 | -99.00756 | 38030 ft | 445 kts | 358° |
| 2026-04-21 19:32 | 21.77999 | -99.00435 | 38031 ft | 444 kts | 358° |
| 2026-04-21 19:32 | 21.84182 | -99.00117 | 38030 ft | 445 kts | 358° |
| 2026-04-21 19:33 | 21.90385 | -98.99796 | 38028 ft | 444 kts | 358° |
| 2026-04-21 19:33 | 21.96576 | -98.99476 | 38025 ft | 445 kts | 358° |
| 2026-04-21 19:34 | 22.02776 | -98.99155 | 38036 ft | 444 kts | 358° |
| 2026-04-21 19:34 | 22.08988 | -98.98834 | 38036 ft | 444 kts | 358° |
| 2026-04-21 19:35 | 22.18175 | -98.98357 | 38041 ft | 444 kts | 358° |
| 2026-04-21 19:36 | 22.24407 | -98.98034 | 38046 ft | 444 kts | 358° |
| 2026-04-21 19:36 | 22.30576 | -98.97714 | 38053 ft | 445 kts | 357° |
| 2026-04-21 19:37 | 22.36785 | -98.97391 | 38053 ft | 446 kts | 358° |
| 2026-04-21 19:37 | 22.43018 | -98.97066 | 38052 ft | 445 kts | 357° |
| 2026-04-21 19:38 | 22.49234 | -98.96742 | 38053 ft | 446 kts | 357° |
| 2026-04-21 19:38 | 22.55492 | -98.96416 | 38047 ft | 447 kts | 358° |
| 2026-04-21 19:39 | 22.61697 | -98.96092 | 38033 ft | 445 kts | 357° |
| 2026-04-21 19:39 | 22.67909 | -98.95768 | 38022 ft | 444 kts | 357° |
| 2026-04-21 19:40 | 22.74100 | -98.95445 | 38006 ft | 444 kts | 357° |
| 2026-04-21 19:40 | 22.80301 | -98.95120 | 38001 ft | 446 kts | 357° |
| 2026-04-21 19:41 | 22.86523 | -98.94795 | 38009 ft | 447 kts | 357° |
| 2026-04-21 19:41 | 22.92713 | -98.94470 | 38011 ft | 447 kts | 357° |
| 2026-04-21 19:42 | 22.98944 | -98.94144 | 38012 ft | 448 kts | 357° |
| 2026-04-21 19:42 | 23.05217 | -98.93813 | 38013 ft | 445 kts | 357° |
| 2026-04-21 19:43 | 23.11414 | -98.93488 | 38023 ft | 445 kts | 357° |
| 2026-04-21 19:43 | 23.17645 | -98.93161 | 38031 ft | 447 kts | 357° |
| 2026-04-21 19:44 | 23.23850 | -98.92834 | 38033 ft | 446 kts | 357° |
| 2026-04-21 19:44 | 23.30050 | -98.92507 | 38037 ft | 447 kts | 357° |
| 2026-04-21 19:45 | 23.36228 | -98.92735 | 38046 ft | 441 kts | 348° |
| 2026-04-21 19:45 | 23.42389 | -98.93310 | 38049 ft | 441 kts | 349° |
| 2026-04-21 19:46 | 23.48531 | -98.93875 | 38048 ft | 440 kts | 349° |
| 2026-04-21 19:46 | 23.54612 | -98.94434 | 38047 ft | 439 kts | 348° |
| 2026-04-21 19:47 | 23.60757 | -98.94999 | 38045 ft | 438 kts | 348° |
| 2026-04-21 19:47 | 23.66818 | -98.95556 | 38043 ft | 438 kts | 348° |
| 2026-04-21 19:48 | 23.72917 | -98.96172 | 38038 ft | 438 kts | 347° |
| 2026-04-21 19:48 | 23.79001 | -98.96894 | 38037 ft | 440 kts | 347° |
| 2026-04-21 19:49 | 23.85145 | -98.97618 | 38034 ft | 439 kts | 347° |
| 2026-04-21 19:49 | 23.91258 | -98.98341 | 38035 ft | 439 kts | 347° |
| 2026-04-21 19:50 | 23.96298 | -98.98936 | 38032 ft | 437 kts | 347° |
| 2026-04-21 19:50 | 24.03382 | -98.99774 | 38020 ft | 435 kts | 347° |
| 2026-04-21 19:51 | 24.09439 | -99.00492 | 38032 ft | 437 kts | 347° |
| 2026-04-21 19:51 | 24.15526 | -99.01214 | 38027 ft | 438 kts | 347° |
| 2026-04-21 19:52 | 24.21594 | -99.01933 | 38024 ft | 437 kts | 347° |
| 2026-04-21 19:52 | 24.27681 | -99.02659 | 38021 ft | 439 kts | 347° |
| 2026-04-21 19:53 | 24.33743 | -99.03380 | 38034 ft | 436 kts | 346° |
| 2026-04-21 19:53 | 24.39784 | -99.04102 | 38054 ft | 437 kts | 347° |
| 2026-04-21 19:54 | 24.45858 | -99.04826 | 38059 ft | 437 kts | 346° |
| 2026-04-21 19:54 | 24.51913 | -99.05550 | 38066 ft | 436 kts | 346° |
| 2026-04-21 19:55 | 24.57974 | -99.06275 | 38024 ft | 436 kts | 346° |
| 2026-04-21 19:55 | 24.64041 | -99.07002 | 37726 ft | 436 kts | 346° |
| 2026-04-21 19:55 | 24.66997 | -99.07351 | 37440 ft | 428 kts | 346° |
| 2026-04-21 19:56 | 24.69984 | -99.07713 | 36627 ft | 430 kts | 346° |
| 2026-04-21 19:56 | 24.72968 | -99.08070 | 35901 ft | 424 kts | 346° |
| 2026-04-21 19:56 | 24.75852 | -99.08415 | 35255 ft | 417 kts | 346° |
| 2026-04-21 19:56 | 24.78732 | -99.08760 | 34658 ft | 412 kts | 346° |
| 2026-04-21 19:57 | 24.81611 | -99.09108 | 34110 ft | 416 kts | 346° |
| 2026-04-21 19:57 | 24.84492 | -99.09459 | 33568 ft | 423 kts | 346° |
| 2026-04-21 19:57 | 24.87481 | -99.09820 | 33027 ft | 428 kts | 346° |
| 2026-04-21 19:57 | 24.90453 | -99.10286 | 32498 ft | 433 kts | 340° |
| 2026-04-21 19:58 | 24.93323 | -99.11264 | 31981 ft | 431 kts | 330° |
| 2026-04-21 19:58 | 24.95941 | -99.12743 | 31436 ft | 417 kts | 321° |
| 2026-04-21 19:58 | 24.98262 | -99.14599 | 30859 ft | 406 kts | 317° |
| 2026-04-21 19:58 | 25.00516 | -99.16524 | 30287 ft | 403 kts | 317° |
| 2026-04-21 19:59 | 25.02729 | -99.18429 | 29722 ft | 405 kts | 317° |
| 2026-04-21 19:59 | 25.04947 | -99.20355 | 29156 ft | 409 kts | 317° |
| 2026-04-21 19:59 | 25.07177 | -99.22299 | 28574 ft | 412 kts | 317° |
| 2026-04-21 19:59 | 25.09420 | -99.24261 | 27979 ft | 413 kts | 317° |
| 2026-04-21 20:00 | 25.11688 | -99.26249 | 27377 ft | 414 kts | 317° |
| 2026-04-21 20:00 | 25.13952 | -99.28238 | 26773 ft | 415 kts | 317° |
| 2026-04-21 20:00 | 25.16188 | -99.30204 | 26169 ft | 413 kts | 317° |
| 2026-04-21 20:00 | 25.18425 | -99.32172 | 25564 ft | 409 kts | 317° |
| 2026-04-21 20:01 | 25.20644 | -99.34126 | 24969 ft | 405 kts | 317° |
| 2026-04-21 20:01 | 25.22839 | -99.36061 | 24384 ft | 402 kts | 318° |
| 2026-04-21 20:01 | 25.25024 | -99.37989 | 23797 ft | 399 kts | 318° |
| 2026-04-21 20:01 | 25.27174 | -99.39885 | 23213 ft | 396 kts | 318° |
| 2026-04-21 20:02 | 25.29324 | -99.41785 | 22636 ft | 394 kts | 318° |
| 2026-04-21 20:02 | 25.31446 | -99.43659 | 22101 ft | 392 kts | 318° |
| 2026-04-21 20:02 | 25.33596 | -99.45561 | 21551 ft | 390 kts | 318° |
| 2026-04-21 20:02 | 25.35694 | -99.47416 | 21012 ft | 388 kts | 318° |
| 2026-04-21 20:03 | 25.37804 | -99.49282 | 20471 ft | 386 kts | 318° |
| 2026-04-21 20:03 | 25.39875 | -99.51115 | 19944 ft | 383 kts | 318° |
| 2026-04-21 20:03 | 25.41959 | -99.52960 | 19407 ft | 381 kts | 318° |
| 2026-04-21 20:03 | 25.44019 | -99.54785 | 18866 ft | 379 kts | 318° |
| 2026-04-21 20:04 | 25.46065 | -99.56599 | 18347 ft | 378 kts | 319° |
| 2026-04-21 20:04 | 25.48100 | -99.58403 | 17826 ft | 376 kts | 318° |
| 2026-04-21 20:04 | 25.50156 | -99.60227 | 17297 ft | 373 kts | 319° |
| 2026-04-21 20:04 | 25.52161 | -99.62006 | 16789 ft | 372 kts | 319° |
| 2026-04-21 20:05 | 25.54182 | -99.63801 | 16279 ft | 370 kts | 319° |
| 2026-04-21 20:05 | 25.56174 | -99.65571 | 15784 ft | 369 kts | 318° |
| 2026-04-21 20:05 | 25.58170 | -99.67345 | 15261 ft | 367 kts | 318° |
| 2026-04-21 20:05 | 25.60154 | -99.69109 | 14749 ft | 366 kts | 319° |
| 2026-04-21 20:06 | 25.62151 | -99.70885 | 14235 ft | 364 kts | 319° |
| 2026-04-21 20:06 | 25.64121 | -99.72638 | 13730 ft | 363 kts | 319° |
| 2026-04-21 20:06 | 25.66081 | -99.74383 | 13240 ft | 363 kts | 319° |
| 2026-04-21 20:06 | 25.68039 | -99.76126 | 12732 ft | 361 kts | 319° |
| 2026-04-21 20:07 | 25.69984 | -99.77859 | 12204 ft | 358 kts | 319° |
| 2026-04-21 20:07 | 25.71914 | -99.79580 | 11724 ft | 355 kts | 319° |
| 2026-04-21 20:07 | 25.73720 | -99.81475 | 11149 ft | 353 kts | 306° |
| 2026-04-21 20:07 | 25.74903 | -99.83721 | 10891 ft | 329 kts | 293° |
| 2026-04-21 20:08 | 25.75847 | -99.85956 | 10531 ft | 308 kts | 296° |
| 2026-04-21 20:08 | 25.76835 | -99.87997 | 10046 ft | 292 kts | 298° |
| 2026-04-21 20:08 | 25.77803 | -99.89881 | 9838 ft | 274 kts | 299° |
| 2026-04-21 20:08 | 25.78744 | -99.91645 | 9589 ft | 259 kts | 300° |
| 2026-04-21 20:09 | 25.79675 | -99.93352 | 9330 ft | 257 kts | 300° |
| 2026-04-21 20:09 | 25.80609 | -99.95042 | 9092 ft | 261 kts | 301° |
| 2026-04-21 20:09 | 25.81567 | -99.96760 | 8832 ft | 263 kts | 301° |
| 2026-04-21 20:09 | 25.82532 | -99.98482 | 8554 ft | 261 kts | 301° |
| 2026-04-21 20:10 | 25.83488 | -100.00185 | 8282 ft | 260 kts | 301° |
| 2026-04-21 20:10 | 25.84463 | -100.01917 | 8017 ft | 262 kts | 301° |
| 2026-04-21 20:10 | 25.85419 | -100.03616 | 7746 ft | 262 kts | 301° |
| 2026-04-21 20:10 | 25.86386 | -100.05334 | 7474 ft | 262 kts | 301° |
| 2026-04-21 20:11 | 25.87343 | -100.07034 | 7213 ft | 252 kts | 301° |
| 2026-04-21 20:11 | 25.88244 | -100.08635 | 6969 ft | 238 kts | 301° |
| 2026-04-21 20:11 | 25.89123 | -100.10197 | 6642 ft | 236 kts | 301° |
| 2026-04-21 20:11 | 25.89989 | -100.11739 | 6333 ft | 239 kts | 301° |
| 2026-04-21 20:12 | 25.90865 | -100.13298 | 6007 ft | 235 kts | 301° |
| 2026-04-21 20:12 | 25.91723 | -100.14825 | 5714 ft | 230 kts | 301° |
| 2026-04-21 20:12 | 25.92561 | -100.16318 | 5473 ft | 228 kts | 302° |
| 2026-04-21 20:12 | 25.93399 | -100.17811 | 5151 ft | 229 kts | 302° |
| 2026-04-21 20:13 | 25.94242 | -100.19312 | 4837 ft | 229 kts | 303° |
| 2026-04-21 20:13 | 25.95088 | -100.20818 | 4523 ft | 229 kts | 302° |
| 2026-04-21 20:13 | 25.95931 | -100.22321 | 4325 ft | 221 kts | 303° |
| 2026-04-21 20:13 | 25.96684 | -100.23737 | 4373 ft | 215 kts | 292° |
| 2026-04-21 20:14 | 25.96851 | -100.25377 | 4378 ft | 212 kts | 256° |
| 2026-04-21 20:14 | 25.96165 | -100.26708 | 4425 ft | 196 kts | 218° |
| 2026-04-21 20:14 | 25.94920 | -100.27277 | 4319 ft | 195 kts | 180° |
| 2026-04-21 20:14 | 25.93621 | -100.26948 | 4151 ft | 191 kts | 155° |
| 2026-04-21 20:15 | 25.92409 | -100.26372 | 3954 ft | 188 kts | 155° |
| 2026-04-21 20:15 | 25.91215 | -100.25820 | 3805 ft | 182 kts | 155° |
| 2026-04-21 20:15 | 25.90049 | -100.25291 | 3723 ft | 183 kts | 157° |
| 2026-04-21 20:15 | 25.88793 | -100.24915 | 3678 ft | 188 kts | 167° |
| 2026-04-21 20:16 | 25.87483 | -100.24749 | 3649 ft | 188 kts | 174° |
| 2026-04-21 20:16 | 25.86165 | -100.24689 | 3648 ft | 189 kts | 173° |
| 2026-04-21 20:16 | 25.85001 | -100.24139 | 3609 ft | 181 kts | 135° |
| 2026-04-21 20:16 | 25.84363 | -100.23023 | 3464 ft | 165 kts | 114° |
| 2026-04-21 20:17 | 25.83847 | -100.21898 | 3326 ft | 158 kts | 118° |
| 2026-04-21 20:17 | 25.83311 | -100.20831 | 3243 ft | 159 kts | 118° |
| 2026-04-21 20:17 | 25.82756 | -100.19762 | 3257 ft | 158 kts | 120° |
| 2026-04-21 20:17 | 25.82440 | -100.19191 | 3224 ft | 162 kts | 120° |
| 2026-04-21 20:18 | 25.82258 | -100.18854 | 3222 ft | 162 kts | 120° |
| 2026-04-21 20:18 | 25.81644 | -100.17831 | 3212 ft | 155 kts | 127° |
| 2026-04-21 20:18 | 25.81048 | -100.16878 | 2923 ft | 145 kts | 119° |
| 2026-04-21 20:19 | 25.80620 | -100.15883 | 2496 ft | 144 kts | 113° |
| 2026-04-21 20:19 | 25.80183 | -100.14908 | 2097 ft | 141 kts | 119° |
| 2026-04-21 20:19 | 25.79675 | -100.14009 | 1781 ft | 132 kts | 123° |
| 2026-04-21 20:19 | 25.79200 | -100.13180 | 1533 ft | 122 kts | 119° |
| 2026-04-21 20:20 | 25.78766 | -100.12364 | 1442 ft | 127 kts | 121° |
| 2026-04-21 20:20 | 25.78289 | -100.11505 | 1340 ft | 134 kts | 121° |
| 2026-04-21 20:20 | 25.77810 | -100.10638 | 1329 ft | 131 kts | 122° |
| 2026-04-21 20:20 | 25.77261 | -100.09772 | 1251 ft | 135 kts | 126° |
| 2026-04-21 20:21 | 25.76975 | -100.09341 | 1244 ft | 1 kts | 128° |